KMCO/MCO METAR and TAF weather

Enter ICAO airport designator
Station Type Date Time Source
KMCO METAR 2022/01/29 01:53 UTC NOAA

KMCO 290153Z 26009KT 10SM SCT170 OVC230 15/09 A2994 RMK AO2 SLP138 T01500094


Station Type Date Time Source
KMCO Decoded METAR 2022/01/29 01:53 UTC NOAA

ORLANDO INTERNATIONAL AIRPORT , FL, United States (KMCO) 28-25N 81-20W 29M
Jan 28, 2022 - 08:53 PM EST / 2022.01.29 0153 UTC
Wind: from the W (260 degrees) at 10 MPH (9 KT):0
Visibility: 10 mile(s):0
Sky conditions: overcast
Temperature: 59.0 F (15.0 C)
Dew Point: 48.9 F (9.4 C)
Relative Humidity: 69%
Pressure (altimeter): 29.94 in. Hg (1013 hPa)
ob: KMCO 290153Z 26009KT 10SM SCT170 OVC230 15/09 A2994 RMK AO2 SLP138 T01500094
cycle: 2

Station Type Date Time Source
KMCO TAF 2022/01/28 21:58 UTC NOAA

TAF
AMD KMCO 282058Z 2821/2924 31012G18KT P6SM SCT015 BKN035
FM290200 29012KT P6SM SCT040 BKN100
FM290700 30015G24KT P6SM SKC
FM291500 30017G26KT P6SM FEW250

Example: see airport list